Time;durP1;ratioP1;P1;durP2;ratioP2;P2;SDS_P1;SDS_P2;PMS_P1;PMS_P2;Temp;Humidity;BMP_temperature;BMP_pressure;BME280_temperature;BME280_humidity;BME280_pressure;Samples;Min_cycle;Max_cycle;Signal;HPM_P1;HPM_P2
2023/05/12 00:02:17;;;;;;;6.10;3.67;;;;;;;9.92;88.03;63982.16;5070771;28;20189;-57
2023/05/12 00:04:42;;;;;;;9.77;3.90;;;;;;;9.94;87.76;63987.41;5070601;28;20213;-58
2023/05/12 00:07:08;;;;;;;5.57;3.80;;;;;;;9.84;88.67;63973.41;5070644;28;20242;-59
2023/05/12 00:09:33;;;;;;;5.27;3.80;;;;;;;9.84;87.97;63973.94;5071008;28;20218;-58
2023/05/12 00:11:59;;;;;;;5.50;3.70;;;;;;;9.68;89.51;63958.41;5070661;28;20256;-56
2023/05/12 00:14:24;;;;;;;4.93;3.50;;;;;;;9.70;88.77;63958.09;5070848;28;20296;-57
2023/05/12 00:16:50;;;;;;;5.00;4.50;;;;;;;9.53;89.45;63940.06;5070769;28;20195;-57
2023/05/12 00:19:20;;;;;;;7.87;4.60;;;;;;;9.71;89.58;63961.72;5070653;28;20590;-58
2023/05/12 00:21:46;;;;;;;8.90;4.57;;;;;;;9.73;90.99;63959.41;5070510;28;20216;-60
2023/05/12 00:24:11;;;;;;;6.97;4.10;;;;;;;9.84;88.88;63973.94;5070457;28;20299;-57
2023/05/12 00:26:37;;;;;;;5.73;5.13;;;;;;;9.76;89.70;63962.13;5070241;28;20645;-56
2023/05/12 00:29:02;;;;;;;4.60;4.20;;;;;;;9.62;89.71;63949.91;5070550;28;20220;-56
2023/05/12 00:31:31;;;;;;;11.77;4.70;;;;;;;9.56;90.71;63945.84;5069454;28;20188;-56
2023/05/12 00:33:56;;;;;;;5.87;4.33;;;;;;;9.51;90.65;63937.31;5052403;28;20247;-56
2023/05/12 00:36:21;;;;;;;6.60;4.70;;;;;;;9.48;91.41;63934.03;5070210;28;20279;-57
2023/05/12 00:38:47;;;;;;;9.37;5.13;;;;;;;9.49;92.07;63935.13;5070334;28;20710;-58
2023/05/12 00:41:13;;;;;;;5.80;4.80;;;;;;;9.53;91.93;63939.50;5070241;28;20189;-58
2023/05/12 00:43:38;;;;;;;7.27;5.10;;;;;;;9.58;93.80;63944.97;5070240;28;20212;-60
2023/05/12 00:46:05;;;;;;;6.80;5.03;;;;;;;9.51;92.65;63937.88;5068816;28;20208;-59
2023/05/12 00:48:31;;;;;;;6.03;4.83;;;;;;;9.52;91.96;63938.97;5070099;28;20232;-60
2023/05/12 00:50:58;;;;;;;4.83;4.33;;;;;;;9.59;91.66;63946.06;5069934;28;20193;-58
2023/05/12 00:53:23;;;;;;;7.27;5.03;;;;;;;9.54;93.19;63943.66;5070241;28;20282;-58
2023/05/12 00:55:49;;;;;;;9.80;4.83;;;;;;;9.61;92.43;63948.81;5070092;28;20184;-58
2023/05/12 00:58:15;;;;;;;6.50;4.67;;;;;;;9.61;92.81;63951.31;5069903;28;20205;-60
2023/05/12 01:00:40;;;;;;;6.40;5.17;;;;;;;9.44;93.89;63930.22;5069961;28;20185;-60
2023/05/12 01:03:06;;;;;;;5.90;5.03;;;;;;;9.51;93.87;63937.31;5069957;28;20216;-58
2023/05/12 01:05:38;;;;;;;6.50;4.57;;;;;;;9.38;94.58;63923.66;5070070;28;20207;-58
2023/05/12 01:08:05;;;;;;;5.53;4.73;;;;;;;9.17;96.06;63900.72;5069752;28;20698;-57
2023/05/12 01:10:30;;;;;;;7.40;5.63;;;;;;;9.20;98.78;63901.47;5069774;28;20236;-58
2023/05/12 01:12:55;;;;;;;5.93;4.93;;;;;;;9.11;97.78;63897.19;5069495;28;20180;-57
2023/05/12 01:15:21;;;;;;;8.60;5.50;;;;;;;9.02;100.00;63887.38;5069931;28;20189;-57
2023/05/12 01:17:53;;;;;;;7.47;5.40;;;;;;;9.00;100.00;63882.13;5069904;28;20532;-60
2023/05/12 01:20:22;;;;;;;6.50;5.43;;;;;;;9.08;100.00;63891.41;5070001;28;20177;-57
2023/05/12 01:22:48;;;;;;;10.60;5.67;;;;;;;9.23;100.00;63907.28;5069649;28;20181;-56
2023/05/12 01:25:15;;;;;;;6.73;4.97;;;;;;;9.06;100.00;63889.22;5070070;28;20193;-60
2023/05/12 01:27:42;;;;;;;5.60;4.57;;;;;;;9.07;100.00;63892.81;5069681;28;20212;-59
2023/05/12 01:30:15;;;;;;;10.63;4.93;;;;;;;9.05;100.00;63887.59;5069659;28;20189;-61
2023/05/12 01:32:41;;;;;;;7.80;5.07;;;;;;;9.01;100.00;63883.75;5069594;28;20193;-60
2023/05/12 01:35:07;;;;;;;6.37;5.20;;;;;;;9.04;100.00;63883.97;5069510;28;20207;-60
2023/05/12 01:37:32;;;;;;;7.30;5.07;;;;;;;9.15;100.00;63896.00;5069697;28;20677;-57
2023/05/12 01:39:58;;;;;;;6.17;4.70;;;;;;;8.92;100.00;63873.94;5069941;28;20279;-55
2023/05/12 01:42:23;;;;;;;6.57;4.93;;;;;;;8.84;100.00;63864.63;5071718;28;20177;-56
2023/05/12 01:44:48;;;;;;;8.87;5.17;;;;;;;8.82;100.00;63860.50;5055232;28;20224;-60
2023/05/12 01:47:14;;;;;;;9.03;5.00;;;;;;;8.66;100.00;63848.03;5072872;28;20242;-58
2023/05/12 01:49:40;;;;;;;6.50;5.27;;;;;;;8.60;100.00;63838.41;5073120;28;20339;-59
2023/05/12 01:52:05;;;;;;;9.40;5.17;;;;;;;8.55;100.00;63837.97;5072925;28;20185;-58
2023/05/12 01:54:31;;;;;;;5.97;5.30;;;;;;;8.44;100.00;63822.03;5072822;28;20297;-60
2023/05/12 01:56:56;;;;;;;8.53;6.13;;;;;;;8.42;100.00;63817.34;5072689;28;20185;-60
2023/05/12 01:59:22;;;;;;;8.20;5.57;;;;;;;8.29;100.00;63805.66;5072436;28;20220;-60
2023/05/12 02:01:48;;;;;;;8.07;5.97;;;;;;;8.37;100.00;63816.91;5054638;28;20181;-56
2023/05/12 02:04:13;;;;;;;7.47;5.43;;;;;;;8.55;100.00;63836.00;5072812;28;20235;-55
2023/05/12 02:06:39;;;;;;;8.47;4.60;;;;;;;8.41;100.00;63820.72;5072504;28;20182;-56
2023/05/12 02:09:04;;;;;;;9.47;5.37;;;;;;;8.36;100.00;63813.28;5072668;28;20655;-54
2023/05/12 02:11:30;;;;;;;7.47;5.33;;;;;;;8.25;100.00;63803.81;5072627;28;20234;-55
2023/05/12 02:13:55;;;;;;;8.40;5.70;;;;;;;8.33;100.00;63812.53;5072429;28;20270;-56
2023/05/12 02:16:21;;;;;;;10.17;5.83;;;;;;;8.41;100.00;63816.25;5054293;28;20183;-57
2023/05/12 02:18:47;;;;;;;7.90;5.47;;;;;;;8.33;100.00;63806.97;5072484;28;20216;-55
2023/05/12 02:21:12;;;;;;;10.33;5.60;;;;;;;8.27;100.00;63803.47;5054442;28;20189;-54
2023/05/12 02:23:38;;;;;;;15.87;6.83;;;;;;;8.43;100.00;63818.44;5072392;28;20290;-55
2023/05/12 02:26:03;;;;;;;8.10;5.77;;;;;;;8.55;100.00;63832.94;5072225;28;20173;-55
2023/05/12 02:28:28;;;;;;;9.07;6.00;;;;;;;8.51;100.00;63828.59;5072075;28;20213;-57
2023/05/12 02:30:54;;;;;;;7.23;4.97;;;;;;;8.54;100.00;63834.38;5070863;28;20192;-55
2023/05/12 02:33:20;;;;;;;9.23;5.37;;;;;;;8.68;100.00;63847.16;5071835;28;20228;-55
2023/05/12 02:35:46;;;;;;;6.30;5.23;;;;;;;8.81;100.00;63859.41;5071986;28;20216;-56
2023/05/12 02:38:12;;;;;;;5.30;4.60;;;;;;;8.75;100.00;63855.34;5071805;28;20242;-56
2023/05/12 02:40:37;;;;;;;9.80;4.17;;;;;;;8.71;100.00;63850.97;5071855;28;20185;-56
2023/05/12 02:43:03;;;;;;;4.40;3.30;;;;;;;8.75;100.00;63857.31;5071629;28;20710;-55
2023/05/12 02:45:29;;;;;;;5.80;3.70;;;;;;;8.62;100.00;63840.59;5053950;28;20191;-56
2023/05/12 02:47:54;;;;;;;10.13;3.60;;;;;;;8.61;100.00;63839.50;5071598;28;20218;-55
2023/05/12 02:50:22;;;;;;;7.80;3.43;;;;;;;8.58;100.00;63833.72;5071831;28;20189;-55
2023/05/12 02:52:48;;;;;;;4.47;3.47;;;;;;;8.42;100.00;63819.84;5071390;28;20189;-56
2023/05/12 02:55:14;;;;;;;3.93;3.60;;;;;;;8.39;100.00;63816.56;5071904;28;20216;-55
2023/05/12 02:57:39;;;;;;;3.80;3.40;;;;;;;8.48;100.00;63828.38;5071685;28;20177;-56
2023/05/12 03:00:06;;;;;;;5.37;3.93;;;;;;;8.41;100.00;63821.28;5071721;28;20262;-56
2023/05/12 03:02:33;;;;;;;12.10;4.30;;;;;;;8.48;100.00;63822.81;5071610;28;20181;-56
2023/05/12 03:04:58;;;;;;;9.00;4.53;;;;;;;8.43;100.00;63823.47;5071341;28;20274;-56
2023/05/12 03:07:24;;;;;;;5.70;4.27;;;;;;;8.27;100.00;63800.41;5071671;28;20181;-57
2023/05/12 03:09:49;;;;;;;5.27;3.83;;;;;;;8.48;100.00;63825.31;5071743;28;20419;-56
2023/05/12 03:12:15;;;;;;;8.13;4.73;;;;;;;8.25;100.00;63801.28;5071379;28;20185;-56
2023/05/12 03:14:40;;;;;;;6.57;4.40;;;;;;;8.26;100.00;63799.84;5071821;28;20213;-59
2023/05/12 03:17:06;;;;;;;5.97;4.63;;;;;;;8.02;100.00;63778.66;5071433;28;20677;-58
2023/05/12 03:19:31;;;;;;;7.63;5.07;;;;;;;8.25;100.00;63803.81;5071653;28;20212;-58
2023/05/12 03:21:57;;;;;;;6.27;4.17;;;;;;;8.26;100.00;63801.84;5070089;28;20682;-59
2023/05/12 03:24:22;;;;;;;7.03;4.57;;;;;;;8.27;100.00;63802.91;5071305;28;20196;-58
2023/05/12 03:26:48;;;;;;;8.30;5.03;;;;;;;8.23;100.00;63799.09;5071280;28;20509;-60
2023/05/12 03:29:13;;;;;;;5.37;4.47;;;;;;;8.15;100.00;63787.28;5071173;28;20285;-60
2023/05/12 03:31:39;;;;;;;11.07;5.03;;;;;;;8.21;100.00;63796.34;5071319;28;20670;-58
2023/05/12 03:34:04;;;;;;;7.80;4.33;;;;;;;8.07;100.00;63781.63;5071411;28;20234;-59
2023/05/12 03:36:30;;;;;;;7.50;5.00;;;;;;;8.15;100.00;63789.81;5071176;28;20294;-59
2023/05/12 03:38:55;;;;;;;7.37;5.40;;;;;;;8.11;100.00;63787.94;5070863;28;20227;-58
2023/05/12 03:41:21;;;;;;;7.73;5.17;;;;;;;8.14;100.00;63788.72;5071105;28;20190;-60
2023/05/12 03:43:46;;;;;;;6.53;5.13;;;;;;;8.28;100.00;63807.06;5071224;28;20306;-59
2023/05/12 03:46:12;;;;;;;7.47;5.17;;;;;;;8.24;100.00;63797.66;5071276;28;20192;-59
2023/05/12 03:48:37;;;;;;;9.20;4.83;;;;;;;8.32;100.00;63808.91;5070811;28;20764;-60
2023/05/12 03:51:03;;;;;;;7.60;5.50;;;;;;;8.19;100.00;63792.22;5071100;28;20261;-59
2023/05/12 03:53:29;;;;;;;6.00;4.57;;;;;;;8.31;100.00;63807.28;5070845;28;20301;-58
2023/05/12 03:55:54;;;;;;;10.67;7.57;;;;;;;8.61;100.00;63839.50;5070888;28;20200;-59
2023/05/12 03:58:22;;;;;;;9.23;5.30;;;;;;;8.84;100.00;63865.19;5070735;28;20287;-58
2023/05/12 04:00:49;;;;;;;10.20;5.67;;;;;;;8.98;100.00;63883.00;5070883;28;20262;-57
2023/05/12 04:03:14;;;;;;;11.33;5.73;;;;;;;9.01;100.00;63885.72;5070729;28;20228;-57
2023/05/12 04:05:41;;;;;;;8.37;5.47;;;;;;;8.94;100.00;63878.06;5069722;28;20189;-58
2023/05/12 04:08:09;;;;;;;10.53;4.83;;;;;;;8.99;100.00;63881.56;5052530;28;20771;-56
2023/05/12 04:10:39;;;;;;;6.03;5.00;;;;;;;8.83;100.00;63863.53;5070440;28;20690;-56
2023/05/12 04:13:04;;;;;;;5.83;4.53;;;;;;;8.93;100.00;63875.00;5070285;28;20204;-56
2023/05/12 04:15:31;;;;;;;6.97;4.73;;;;;;;9.05;100.00;63887.59;5070544;28;20180;-57
2023/05/12 04:17:56;;;;;;;7.07;5.00;;;;;;;8.94;100.00;63878.06;5070338;28;20674;-55
2023/05/12 04:20:21;;;;;;;6.07;4.73;;;;;;;9.23;100.00;63907.28;5070627;28;20185;-56
2023/05/12 04:22:47;;;;;;;8.10;4.90;;;;;;;9.14;100.00;63899.94;5070391;28;20695;-57
2023/05/12 04:25:13;;;;;;;5.50;4.10;;;;;;;9.13;100.00;63899.38;5052570;28;20283;-57
2023/05/12 04:27:38;;;;;;;5.93;4.13;;;;;;;9.16;100.00;63897.09;5070344;28;20201;-55
2023/05/12 04:30:05;;;;;;;5.97;4.50;;;;;;;8.90;100.00;63874.25;5070430;28;20212;-56
2023/05/12 04:32:30;;;;;;;7.63;4.93;;;;;;;8.94;100.00;63876.13;5070185;28;20241;-56
2023/05/12 04:34:56;;;;;;;5.90;4.63;;;;;;;8.85;100.00;63865.72;5070003;28;20220;-56
2023/05/12 04:37:21;;;;;;;8.37;4.97;;;;;;;8.78;100.00;63858.09;5070155;28;20236;-56
2023/05/12 04:39:47;;;;;;;6.80;4.60;;;;;;;8.73;100.00;63852.63;5070581;28;20242;-55
2023/05/12 04:42:13;;;;;;;6.67;4.13;;;;;;;8.67;100.00;63846.06;5068753;28;20568;-56
2023/05/12 04:44:38;;;;;;;10.00;5.40;;;;;;;8.72;100.00;63852.09;5070571;28;20249;-58
2023/05/12 04:47:04;;;;;;;6.80;4.70;;;;;;;8.67;100.00;63846.59;5070535;28;20197;-58
2023/05/12 04:49:29;;;;;;;7.33;4.60;;;;;;;8.51;100.00;63828.59;5070353;28;20217;-57
2023/05/12 04:51:55;;;;;;;7.00;4.00;;;;;;;8.58;100.00;63839.31;5069931;28;20197;-56
2023/05/12 04:54:20;;;;;;;9.57;5.30;;;;;;;8.76;100.00;63856.44;5069927;28;20208;-55
2023/05/12 04:56:46;;;;;;;6.73;5.10;;;;;;;8.85;100.00;63865.72;5070036;28;20211;-59
2023/05/12 04:59:14;;;;;;;6.73;5.33;;;;;;;8.63;100.00;63844.19;5069988;28;20316;-59
2023/05/12 05:01:41;;;;;;;9.77;4.73;;;;;;;8.85;100.00;63863.22;5070071;28;20209;-58
2023/05/12 05:04:07;;;;;;;6.23;5.00;;;;;;;8.81;100.00;63864.41;5070079;28;20212;-59
2023/05/12 05:06:32;;;;;;;6.60;4.33;;;;;;;8.75;100.00;63857.84;5069892;28;20196;-59
2023/05/12 05:08:58;;;;;;;7.43;5.30;;;;;;;8.84;100.00;63867.72;5069837;28;20690;-59
2023/05/12 05:11:23;;;;;;;7.73;4.30;;;;;;;8.79;100.00;63859.16;5069899;28;20360;-59
2023/05/12 05:13:55;;;;;;;5.00;4.23;;;;;;;8.99;100.00;63881.03;5069906;28;20269;-60
2023/05/12 05:16:21;;;;;;;6.93;4.93;;;;;;;8.96;100.00;63875.78;5070478;28;20695;-60
2023/05/12 05:18:47;;;;;;;7.20;4.40;;;;;;;8.85;100.00;63868.78;5073401;28;20236;-59
2023/05/12 05:21:13;;;;;;;6.97;4.73;;;;;;;8.65;100.00;63843.88;5071736;28;20200;-58
2023/05/12 05:23:39;;;;;;;7.43;4.63;;;;;;;8.77;100.00;63857.53;5073158;28;20243;-59
2023/05/12 05:26:05;;;;;;;6.27;5.03;;;;;;;8.84;100.00;63864.63;5073208;28;20185;-60
2023/05/12 05:28:31;;;;;;;7.57;5.00;;;;;;;8.77;100.00;63859.50;5072256;28;20631;-59
2023/05/12 05:30:56;;;;;;;6.57;5.10;;;;;;;8.76;100.00;63853.94;5072690;28;20234;-58
2023/05/12 05:33:22;;;;;;;6.13;4.83;;;;;;;8.80;100.00;63860.28;5071672;28;20208;-60
2023/05/12 05:35:48;;;;;;;7.53;5.37;;;;;;;8.73;100.00;63853.16;5073361;28;20181;-58
2023/05/12 05:38:13;;;;;;;5.93;5.00;;;;;;;8.81;100.00;63863.88;5072915;28;20213;-59
2023/05/12 05:40:39;;;;;;;5.30;4.80;;;;;;;8.81;100.00;63861.34;5072907;28;20670;-59
2023/05/12 05:43:05;;;;;;;7.60;5.53;;;;;;;8.99;100.00;63881.56;5072824;28;20215;-62
2023/05/12 05:45:30;;;;;;;8.10;5.37;;;;;;;9.07;100.00;63889.78;5072908;28;20650;-59
2023/05/12 05:47:55;;;;;;;7.20;5.17;;;;;;;8.99;100.00;63883.53;5072743;28;20215;-59
2023/05/12 05:50:21;;;;;;;8.33;5.80;;;;;;;8.89;100.00;63870.09;5072812;28;20200;-58
2023/05/12 05:52:46;;;;;;;7.47;5.73;;;;;;;8.83;100.00;63861.56;5072843;28;20180;-59
2023/05/12 05:55:12;;;;;;;6.90;4.87;;;;;;;8.78;100.00;63858.09;5073183;28;20663;-59
2023/05/12 05:57:37;;;;;;;9.57;5.70;;;;;;;8.74;100.00;63851.75;5072558;28;20192;-58
2023/05/12 06:00:05;;;;;;;8.60;5.33;;;;;;;8.62;100.00;63843.66;5072823;28;20213;-58
2023/05/12 06:02:32;;;;;;;9.47;5.47;;;;;;;8.69;100.00;63853.81;5072759;28;20234;-59
2023/05/12 06:04:58;;;;;;;8.23;5.30;;;;;;;8.86;100.00;63867.38;5072414;28;20217;-58
2023/05/12 06:10:08;;;;;;;10.47;6.10;;;;;;;9.06;100.00;63891.75;5072622;28;20276;-59
2023/05/12 06:12:33;;;;;;;10.30;6.27;;;;;;;9.18;100.00;63904.31;5072529;28;20374;-59
2023/05/12 06:14:59;;;;;;;9.30;5.30;;;;;;;9.18;100.00;63904.31;5072760;28;20227;-58
2023/05/12 06:17:24;;;;;;;10.47;5.23;;;;;;;9.29;100.00;63916.88;5072759;28;20235;-59
2023/05/12 06:19:50;;;;;;;10.93;5.40;;;;;;;9.05;100.00;63887.59;5072272;28;20208;-58
2023/05/12 06:22:15;;;;;;;7.30;5.40;;;;;;;9.18;100.00;63902.34;5072492;28;20235;-57
2023/05/12 06:24:41;;;;;;;9.10;5.77;;;;;;;9.26;100.00;63913.06;5072667;28;20244;-58
2023/05/12 06:27:07;;;;;;;7.43;4.73;;;;;;;9.16;100.00;63899.59;5072501;28;20192;-59
2023/05/12 06:29:33;;;;;;;11.03;5.70;;;;;;;9.22;100.00;63903.66;5071336;28;20677;-60
2023/05/12 06:31:59;;;;;;;7.80;5.20;;;;;;;9.23;100.00;63907.81;5071978;28;20192;-58
2023/05/12 06:34:25;;;;;;;8.40;5.23;;;;;;;9.20;100.00;63903.97;5072111;28;20223;-59
2023/05/12 06:36:50;;;;;;;10.33;5.53;;;;;;;9.14;100.00;63897.41;5072142;28;20242;-60
2023/05/12 06:39:15;;;;;;;9.70;5.73;;;;;;;9.15;100.00;63901.56;5072330;28;20613;-58
2023/05/12 06:41:41;;;;;;;8.30;5.67;;;;;;;9.19;100.00;63903.44;5072091;28;20179;-59
2023/05/12 06:44:11;;;;;;;10.63;5.13;;;;;;;9.20;100.00;63903.97;5072161;28;20760;-59
2023/05/12 06:46:39;;;;;;;8.70;5.40;;;;;;;9.29;100.00;63916.34;5071822;28;20200;-59
2023/05/12 06:49:05;;;;;;;7.87;5.27;;;;;;;9.25;100.00;63910.00;5071896;28;20228;-60
2023/05/12 06:51:31;;;;;;;6.70;5.20;;;;;;;9.42;100.00;63925.50;5071949;28;20365;-59
2023/05/12 06:53:57;;;;;;;10.43;6.07;;;;;;;9.30;100.00;63914.91;5072059;28;20702;-58
2023/05/12 06:56:22;;;;;;;7.20;4.53;;;;;;;9.28;100.00;63912.72;5071963;28;20185;-60
2023/05/12 06:58:48;;;;;;;7.17;4.87;;;;;;;9.54;100.00;63940.59;5071841;28;20306;-61
2023/05/12 07:01:14;;;;;;;8.23;5.00;;;;;;;9.69;100.00;63957.56;5071817;28;20229;-59
2023/05/12 07:03:39;;;;;;;8.70;5.80;;;;;;;9.90;100.00;63983.03;5071927;28;20254;-59
2023/05/12 07:06:05;;;;;;;14.30;5.23;;;;;;;9.88;100.00;63975.81;5071726;28;20240;-59
2023/05/12 07:08:30;;;;;;;10.93;6.40;;;;;;;9.62;100.00;63949.91;5071600;28;20220;-59
2023/05/12 07:10:58;;;;;;;11.27;6.67;;;;;;;9.67;100.00;63955.38;5071751;28;20671;-58
2023/05/12 07:13:24;;;;;;;9.23;5.97;;;;;;;9.56;100.00;63945.84;5071516;28;20209;-59
2023/05/12 07:15:50;;;;;;;10.67;6.23;;;;;;;9.61;100.00;63948.81;5071605;28;20181;-61
2023/05/12 07:18:15;;;;;;;10.37;6.30;;;;;;;9.71;100.00;63959.19;5071689;28;20706;-59
2023/05/12 07:20:41;;;;;;;7.93;5.63;;;;;;;9.75;100.00;63966.63;5071700;28;20188;-59
2023/05/12 07:23:07;;;;;;;8.73;4.80;;;;;;;9.87;100.00;63977.25;5071487;28;20740;-60
2023/05/12 07:25:33;;;;;;;7.33;5.03;;;;;;;9.89;100.00;63979.44;5071658;28;20242;-59
2023/05/12 07:27:58;;;;;;;7.30;5.20;;;;;;;9.90;100.00;63982.47;5071177;28;20204;-59
2023/05/12 07:30:24;;;;;;;10.83;4.67;;;;;;;9.90;100.00;63978.00;5071261;28;20238;-58
2023/05/12 07:32:49;;;;;;;8.83;5.03;;;;;;;10.01;100.00;63992.00;5071304;28;20280;-60
2023/05/12 07:35:15;;;;;;;7.60;5.07;;;;;;;10.11;100.00;64006.03;5071291;28;20196;-58
2023/05/12 07:37:41;;;;;;;11.47;5.13;;;;;;;10.16;100.00;64010.41;5053236;28;20204;-60
2023/05/12 07:40:07;;;;;;;8.07;5.17;;;;;;;9.96;100.00;63984.56;5071520;28;20584;-59
2023/05/12 07:42:32;;;;;;;7.80;5.03;;;;;;;9.93;100.00;63983.25;5071138;28;20188;-57
2023/05/12 07:44:58;;;;;;;16.53;4.63;;;;;;;9.99;100.00;63990.38;5070948;28;20208;-60
2023/05/12 07:47:24;;;;;;;7.73;5.17;;;;;;;10.19;100.00;64014.25;5071292;28;20226;-58
2023/05/12 07:49:49;;;;;;;8.13;5.63;;;;;;;10.29;100.00;64022.09;5070956;28;20244;-57
2023/05/12 07:52:15;;;;;;;6.00;4.60;;;;;;;10.36;100.00;64029.78;5071049;28;20192;-57
2023/05/12 07:54:40;;;;;;;6.33;4.80;;;;;;;10.37;100.00;64033.94;5071029;28;20641;-58
2023/05/12 07:57:05;;;;;;;12.43;5.80;;;;;;;10.38;100.00;64032.53;5070984;28;20650;-57
2023/05/12 07:59:31;;;;;;;8.70;5.70;;;;;;;10.46;100.00;64038.75;5071017;28;20242;-57
2023/05/12 08:01:57;;;;;;;9.40;6.17;;;;;;;10.45;100.00;64039.63;5070859;28;20188;-57
2023/05/12 08:04:23;;;;;;;8.97;6.30;;;;;;;10.57;100.00;64052.75;5071047;28;20307;-56
2023/05/12 08:06:48;;;;;;;6.67;4.97;;;;;;;10.64;100.00;64060.97;5070756;28;20268;-57
2023/05/12 08:09:13;;;;;;;8.73;5.80;;;;;;;10.53;100.00;64048.38;5070897;28;20232;-58
2023/05/12 08:11:39;;;;;;;6.70;5.73;;;;;;;10.55;100.00;64048.59;5070695;28;20612;-58
2023/05/12 08:14:05;;;;;;;7.80;5.67;;;;;;;10.73;100.00;64072.78;5070716;28;20276;-59
2023/05/12 08:16:30;;;;;;;7.37;4.93;;;;;;;10.83;100.00;64081.75;5070505;28;20177;-57
2023/05/12 08:18:57;;;;;;;6.37;4.93;;;;;;;10.87;100.00;64086.16;5070645;28;20208;-57
2023/05/12 08:21:23;;;;;;;9.17;5.53;;;;;;;10.95;100.00;64094.91;5070703;28;20191;-59
2023/05/12 08:23:48;;;;;;;7.73;5.87;;;;;;;10.94;100.00;64096.34;5070723;28;20204;-57
2023/05/12 08:26:13;;;;;;;6.87;4.47;;;;;;;10.85;99.70;64083.94;5070711;28;20180;-59
2023/05/12 08:28:39;;;;;;;8.90;4.63;;;;;;;11.05;98.45;64102.78;5070593;28;20243;-57
2023/05/12 08:31:04;;;;;;;7.83;5.23;;;;;;;11.03;99.03;64103.09;5070542;28;20264;-57
2023/05/12 08:33:29;;;;;;;10.53;7.47;;;;;;;10.73;100.00;64067.75;5078168;22;20706;-57
2023/05/12 08:35:56;;;;;;;10.67;5.90;;;;;;;10.77;99.92;64074.66;5070444;28;20203;-57
2023/05/12 08:38:21;;;;;;;10.03;5.20;;;;;;;10.79;99.23;64076.84;5070492;28;20205;-57
2023/05/12 08:40:59;;;;;;;8.97;5.27;;;;;;;11.04;99.34;64106.75;5070408;28;20192;-57
2023/05/12 08:43:36;;;;;;;8.03;5.50;;;;;;;11.15;94.47;64113.19;5070377;28;20224;-56
2023/05/12 08:46:03;;;;;;;9.70;5.40;;;;;;;11.17;96.49;64118.44;5070503;28;20189;-59
2023/05/12 08:48:32;;;;;;;6.83;5.40;;;;;;;11.18;97.66;64119.53;5070810;28;20224;-56
2023/05/12 08:50:59;;;;;;;5.47;4.57;;;;;;;11.19;95.98;64117.56;5069603;28;20245;-58
2023/05/12 08:53:28;;;;;;;7.53;4.03;;;;;;;11.23;94.81;64124.47;5070325;28;20216;-59
2023/05/12 08:55:55;;;;;;;7.53;4.97;;;;;;;11.16;96.21;64119.88;5070253;28;20533;-58
2023/05/12 08:58:21;;;;;;;6.27;4.40;;;;;;;11.15;92.76;64113.19;5070141;28;20295;-58
2023/05/12 09:00:48;;;;;;;5.57;4.30;;;;;;;11.35;91.74;64140.69;5070061;28;20272;-57
2023/05/12 09:03:13;;;;;;;8.60;4.93;;;;;;;11.45;92.23;64148.56;5069838;28;20599;-57
2023/05/12 09:05:41;;;;;;;6.67;4.53;;;;;;;11.42;96.28;64145.28;5070010;28;20198;-57
2023/05/12 09:08:08;;;;;;;7.90;4.87;;;;;;;11.54;92.74;64158.97;5069535;28;20217;-57
2023/05/12 09:10:34;;;;;;;13.20;6.37;;;;;;;11.66;92.40;64172.16;5069823;28;20458;-58
2023/05/12 09:13:39;;;;;;;5.87;4.70;;;;;;;11.70;89.41;64175.97;5069900;28;20647;-57
2023/05/12 09:16:10;;;;;;;5.97;4.90;;;;;;;11.70;89.22;64176.53;5067632;28;20192;-58
2023/05/12 09:18:56;;;;;;;6.37;4.80;;;;;;;11.49;88.30;64152.97;5069935;28;20249;-57
2023/05/12 09:21:21;;;;;;;7.13;5.27;;;;;;;11.61;88.16;64164.13;5069656;28;20191;-57
2023/05/12 09:23:58;;;;;;;6.87;4.90;;;;;;;11.77;91.71;64183.66;5069810;28;20217;-58
2023/05/12 09:26:26;;;;;;;4.93;4.43;;;;;;;11.65;86.22;64170.50;5069789;28;20655;-57
2023/05/12 09:28:53;;;;;;;6.60;5.10;;;;;;;11.52;87.40;64158.75;5069431;28;20224;-57
2023/05/12 09:31:21;;;;;;;5.60;4.57;;;;;;;11.52;85.37;64156.78;5068173;28;20193;-58
2023/05/12 09:33:47;;;;;;;6.07;5.03;;;;;;;11.46;86.02;64147.69;5069955;28;20340;-59
2023/05/12 09:36:20;;;;;;;11.33;5.17;;;;;;;11.74;85.47;64177.84;5069406;28;20292;-60
2023/05/12 09:38:57;;;;;;;7.23;4.47;;;;;;;11.85;84.59;64191.88;5069975;28;20221;-60
2023/05/12 09:41:22;;;;;;;6.97;5.00;;;;;;;11.97;85.38;64202.50;5069647;28;20669;-59
2023/05/12 09:43:51;;;;;;;7.33;5.10;;;;;;;11.94;83.96;64199.22;5069619;28;20208;-60
2023/05/12 09:46:16;;;;;;;8.27;4.90;;;;;;;12.01;83.93;64206.88;5069493;28;20659;-60
2023/05/12 09:48:41;;;;;;;6.90;4.53;;;;;;;12.11;82.38;64220.94;5069341;28;20231;-59
2023/05/12 09:51:09;;;;;;;5.40;3.70;;;;;;;11.84;81.37;64190.78;5069521;28;20181;-60
2023/05/12 09:53:41;;;;;;;6.77;4.37;;;;;;;11.78;82.03;64182.22;5069601;28;20238;-65
2023/05/12 09:56:07;;;;;;;7.37;4.50;;;;;;;11.74;81.88;64180.38;5069369;28;20254;-60
2023/05/12 09:58:33;;;;;;;6.63;4.47;;;;;;;11.64;81.08;64167.41;5069458;28;20217;-58
2023/05/12 10:00:58;;;;;;;5.20;4.00;;;;;;;11.84;81.95;64193.31;5069152;28;20208;-58
2023/05/12 10:03:28;;;;;;;6.30;3.73;;;;;;;12.09;80.57;64216.22;5070289;28;20208;-60
2023/05/12 10:06:00;;;;;;;6.47;4.13;;;;;;;12.22;81.58;64235.50;5071569;28;20608;-59
2023/05/12 10:08:47;;;;;;;7.30;3.60;;;;;;;12.38;80.23;64249.97;5071469;28;20228;-59
2023/05/12 10:11:13;;;;;;;8.87;3.67;;;;;;;12.78;89.52;64293.31;5054625;28;20662;-59
2023/05/12 10:13:39;;;;;;;6.10;3.53;;;;;;;13.11;96.51;64327.00;5072565;28;20259;-60
2023/05/12 10:16:05;;;;;;;4.80;4.10;;;;;;;13.05;74.85;64323.47;5072519;28;20189;-59
2023/05/12 10:18:33;;;;;;;3.97;3.57;;;;;;;12.85;75.37;64301.53;5072834;28;20208;-60
2023/05/12 10:21:00;;;;;;;7.43;3.60;;;;;;;12.90;76.51;64306.47;5072544;28;20192;-59
2023/05/12 10:23:26;;;;;;;4.30;3.60;;;;;;;12.78;75.56;64293.31;5072709;28;20295;-57
2023/05/12 10:26:00;;;;;;;4.33;3.33;;;;;;;13.07;75.55;64323.16;5072667;28;20215;-58
2023/05/12 10:28:26;;;;;;;4.73;3.37;;;;;;;13.79;74.13;64406.16;5072458;28;20347;-58
2023/05/12 10:30:52;;;;;;;8.03;3.30;;;;;;;13.56;72.33;64373.28;5072322;28;20199;-57
2023/05/12 10:33:18;;;;;;;6.53;3.27;;;;;;;13.23;72.26;64340.72;5072590;28;20210;-58
2023/05/12 10:35:44;;;;;;;7.00;3.40;;;;;;;13.36;73.13;64357.53;5072544;28;20227;-58
2023/05/12 10:38:14;;;;;;;4.77;3.10;;;;;;;13.54;72.06;64376.72;5072123;28;20213;-57
2023/05/12 10:40:52;;;;;;;7.43;3.57;;;;;;;13.69;71.21;64392.66;5072406;28;20197;-58
2023/05/12 10:43:21;;;;;;;4.30;3.20;;;;;;;13.67;71.51;64387.91;5072330;28;20219;-60
2023/05/12 10:46:05;;;;;;;3.83;2.80;;;;;;;13.63;70.23;64386.06;5072153;28;20199;-58
2023/05/12 10:48:30;;;;;;;3.50;3.20;;;;;;;13.92;71.27;64420.97;5072174;28;20291;-59
2023/05/12 10:50:56;;;;;;;4.47;3.67;;;;;;;14.39;70.51;64469.53;5071699;28;20189;-60
2023/05/12 10:53:31;;;;;;;3.50;3.07;;;;;;;14.73;67.83;64504.38;5071722;28;20273;-60
2023/05/12 10:55:57;;;;;;;6.37;3.40;;;;;;;14.77;65.14;64508.78;5071622;28;20579;-58
2023/05/12 10:58:22;;;;;;;5.53;3.37;;;;;;;14.90;66.34;64523.06;5071715;28;20213;-58
2023/05/12 11:00:50;;;;;;;4.83;3.60;;;;;;;14.83;65.13;64517.91;5071943;28;20201;-59
2023/05/12 11:03:22;;;;;;;3.50;3.20;;;;;;;14.62;66.13;64497.38;5072023;28;20300;-59
2023/05/12 11:05:58;;;;;;;6.07;3.10;;;;;;;14.52;65.41;64481.31;5072050;28;20193;-56
2023/05/12 11:08:23;;;;;;;6.83;2.93;;;;;;;14.40;65.53;64468.13;5071883;28;20251;-57
2023/05/12 11:10:50;;;;;;;3.47;3.17;;;;;;;14.48;66.46;64481.97;5071618;28;20228;-59
2023/05/12 11:13:17;;;;;;;5.83;3.67;;;;;;;14.32;66.26;64459.34;5071938;28;20221;-58
2023/05/12 11:15:44;;;;;;;3.40;2.90;;;;;;;14.05;68.52;64430.19;5071195;28;20263;-59
2023/05/12 11:18:11;;;;;;;3.23;2.93;;;;;;;13.87;68.38;64409.88;5071796;28;20213;-60
2023/05/12 11:20:37;;;;;;;5.13;3.30;;;;;;;13.99;67.78;64423.06;5071533;28;20648;-58
2023/05/12 11:23:02;;;;;;;5.90;3.63;;;;;;;14.14;68.21;64439.50;5071400;28;20205;-59
2023/05/12 11:25:28;;;;;;;5.63;3.43;;;;;;;14.25;67.27;64454.69;5071587;28;20177;-58
2023/05/12 11:27:54;;;;;;;5.50;3.30;;;;;;;14.34;66.09;64464.06;5071429;28;20221;-59
2023/05/12 11:30:20;;;;;;;7.13;3.37;;;;;;;14.16;66.51;64441.72;5071359;28;20196;-58
2023/05/12 11:32:45;;;;;;;4.90;3.70;;;;;;;14.00;68.54;64424.69;5071363;28;20193;-63